Time;durP1;ratioP1;P1;durP2;ratioP2;P2;SDS_P1;SDS_P2;PMS_P1;PMS_P2;Temp;Humidity;BMP_temperature;BMP_pressure;BME280_temperature;BME280_humidity;BME280_pressure;Samples;Min_cycle;Max_cycle;Signal;HPM_P1;HPM_P2
2023/01/29 00:01:43;;;;;;;89.38;41.75;;;;;;;4.90;59.88;101958.94;4834073;29;20540;-80
2023/01/29 00:04:58;;;;;;;75.18;40.20;;;;;;;4.56;59.89;101913.03;4833279;29;20052;-78
2023/01/29 00:08:01;;;;;;;88.68;39.88;;;;;;;5.02;59.89;101989.13;4816225;29;20414;-80
2023/01/29 00:10:46;;;;;;;74.95;38.42;;;;;;;4.98;60.03;101982.31;4850367;29;20052;-79
2023/01/29 00:13:19;;;;;;;88.07;41.05;;;;;;;4.56;60.29;101938.47;4857622;29;20455;-78
2023/01/29 00:16:20;;;;;;;81.35;40.33;;;;;;;4.95;59.66;101999.06;4850098;29;20479;-78
2023/01/29 00:19:09;;;;;;;76.30;38.15;;;;;;;4.73;59.89;101951.75;4833802;29;20087;-81
2023/01/29 00:21:44;;;;;;;88.20;39.28;;;;;;;4.93;59.40;101993.88;4836266;29;20049;-79
2023/01/29 00:24:18;;;;;;;89.72;40.33;;;;;;;4.90;60.50;101996.66;4865307;29;20257;-80
2023/01/29 00:26:51;;;;;;;90.88;40.15;;;;;;;4.93;59.71;101996.50;4866291;29;20048;-80
2023/01/29 00:29:18;;;;;;;87.43;40.27;;;;;;;4.96;59.70;101999.94;4870910;29;20473;-79
2023/01/29 00:31:53;;;;;;;77.47;38.15;;;;;;;4.93;59.94;102001.78;4843120;29;20549;-78
2023/01/29 00:34:43;;;;;;;92.47;40.25;;;;;;;4.92;59.30;101989.53;4869638;29;20051;-80
2023/01/29 00:37:18;;;;;;;92.95;40.28;;;;;;;3.99;59.72;101856.75;4832935;29;20384;-79
2023/01/29 00:39:52;;;;;;;86.93;39.38;;;;;;;3.45;59.88;101774.00;4837541;29;20411;-78
2023/01/29 00:45:39;;;;;;;83.93;39.65;;;;;;;4.81;60.40;102022.50;4796069;29;20234;-81
2023/01/29 00:48:15;;;;;;;76.75;39.47;;;;;;;4.81;60.07;102011.97;4828285;29;20259;-81
2023/01/29 00:50:55;;;;;;;83.82;40.72;;;;;;;4.14;60.27;101911.28;4850062;29;20341;-78
2023/01/29 00:53:43;;;;;;;77.35;38.75;;;;;;;4.77;60.09;102013.03;4858692;29;20075;-80
2023/01/29 00:56:32;;;;;;;85.97;40.75;;;;;;;4.59;60.40;101993.59;4829051;29;20327;-80
2023/01/29 00:59:14;;;;;;;78.05;40.05;;;;;;;4.37;60.20;101955.06;4852198;29;20178;-79
2023/01/29 01:04:49;;;;;;;93.43;40.55;;;;;;;4.70;60.13;102007.16;4815336;29;20751;-80
2023/01/29 01:07:33;;;;;;;85.03;40.78;;;;;;;4.70;60.45;102025.56;4794955;29;20357;-80
2023/01/29 01:10:27;;;;;;;85.20;39.38;;;;;;;4.74;60.18;102021.91;4802168;29;20056;-80
2023/01/29 01:13:12;;;;;;;88.88;42.30;;;;;;;4.72;60.46;102003.53;4799679;29;20431;-79
2023/01/29 01:16:02;;;;;;;80.38;39.38;;;;;;;4.67;60.50;102010.75;4798809;29;20358;-78
2023/01/29 01:18:48;;;;;;;85.20;39.95;;;;;;;4.68;60.48;102011.63;4802693;29;20169;-79
2023/01/29 01:21:28;;;;;;;90.70;40.45;;;;;;;4.77;60.15;102019.13;4791825;29;20056;-78
2023/01/29 01:24:09;;;;;;;78.72;38.08;;;;;;;4.69;60.50;102010.72;4774511;29;20325;-79
2023/01/29 01:26:54;;;;;;;81.63;38.25;;;;;;;4.54;59.69;101971.88;4776827;29;20194;-79
2023/01/29 01:29:45;;;;;;;89.90;38.13;;;;;;;4.82;59.82;102035.56;4799602;29;20079;-80
2023/01/29 01:32:21;;;;;;;88.38;38.83;;;;;;;4.77;59.33;102011.25;4748767;29;20105;-82
2023/01/29 01:34:53;;;;;;;80.53;39.65;;;;;;;4.66;59.63;101997.66;4767158;29;20137;-79
2023/01/29 01:37:36;;;;;;;76.90;37.67;;;;;;;4.63;59.67;102008.31;4791328;29;20449;-80
2023/01/29 01:40:19;;;;;;;87.53;41.08;;;;;;;4.82;59.92;102040.00;4809998;29;20116;-80
2023/01/29 01:42:55;;;;;;;81.40;38.60;;;;;;;4.75;59.67;102018.34;4806745;29;20056;-80
2023/01/29 01:45:41;;;;;;;79.63;37.53;;;;;;;4.68;59.64;102015.13;4796665;29;20341;-79
2023/01/29 01:48:26;;;;;;;76.43;38.42;;;;;;;4.33;59.63;101963.97;4817362;29;20583;-79
2023/01/29 01:51:02;;;;;;;82.88;40.05;;;;;;;4.64;59.41;102025.84;4814262;29;20636;-79
2023/01/29 01:53:55;;;;;;;81.80;38.47;;;;;;;4.20;60.06;101968.88;4819805;29;20135;-78
2023/01/29 01:56:43;;;;;;;80.70;38.40;;;;;;;4.27;60.02;101974.72;4778936;29;20087;-79
2023/01/29 01:59:31;;;;;;;76.93;38.97;;;;;;;4.67;59.94;102036.22;4782355;29;20052;-80
2023/01/29 02:10:47;;;;;;;86.07;39.13;;;;;;;4.40;60.49;102028.53;4880169;29;20056;-80
2023/01/29 02:13:26;;;;;;;81.15;38.65;;;;;;;4.13;60.44;101985.81;4862946;29;20476;-79
2023/01/29 02:15:52;;;;;;;80.43;38.35;;;;;;;4.50;60.74;102044.81;4869387;29;20071;-78
2023/01/29 02:18:20;;;;;;;79.43;38.38;;;;;;;4.55;60.52;102053.34;4861259;29;20139;-80
2023/01/29 02:21:27;;;;;;;76.70;37.88;;;;;;;4.21;60.61;101990.75;4873369;29;20584;-80
2023/01/29 02:24:06;;;;;;;74.38;37.75;;;;;;;4.49;60.90;102054.47;4879976;29;20147;-79
2023/01/29 02:26:58;;;;;;;85.10;40.67;;;;;;;4.54;60.80;102061.31;4852699;29;20054;-79
2023/01/29 02:29:53;;;;;;;78.55;38.50;;;;;;;4.42;61.09;102041.63;4868223;29;20055;-78
2023/01/29 02:32:53;;;;;;;80.53;39.20;;;;;;;4.10;61.18;101999.06;4869763;29;20293;-80
2023/01/29 02:35:33;;;;;;;78.20;39.03;;;;;;;4.48;60.85;102068.53;4877151;29;20482;-78
2023/01/29 02:38:35;;;;;;;88.07;41.90;;;;;;;4.15;61.40;102017.28;4904682;29;20358;-82
2023/01/29 02:41:36;;;;;;;82.43;40.85;;;;;;;4.34;60.54;102046.31;4883358;29;20056;-78
2023/01/29 02:44:14;;;;;;;84.13;38.88;;;;;;;4.15;61.00;102028.66;4888988;29;20079;-79
2023/01/29 02:47:02;;;;;;;90.25;41.10;;;;;;;4.22;61.97;102059.06;4884871;29;20447;-80
2023/01/29 02:49:35;;;;;;;87.65;39.90;;;;;;;4.26;61.32;102059.78;4883480;29;20772;-76
2023/01/29 02:52:16;;;;;;;77.10;40.22;;;;;;;4.00;61.59;102022.22;4881155;29;20533;-80
2023/01/29 02:55:08;;;;;;;89.03;39.88;;;;;;;4.23;61.68;102050.25;4894189;29;20059;-79
2023/01/29 02:57:45;;;;;;;87.53;42.55;;;;;;;4.35;60.79;102051.53;4891034;29;20220;-79
2023/01/29 03:00:29;;;;;;;90.78;41.88;;;;;;;4.40;60.61;102053.97;4876715;29;20048;-78
2023/01/29 03:03:33;;;;;;;90.15;41.50;;;;;;;4.28;60.88;102042.19;4872604;29;20127;-79
2023/01/29 03:06:19;;;;;;;81.68;38.67;;;;;;;4.23;60.97;102036.25;4881243;29;20048;-79
2023/01/29 03:09:00;;;;;;;81.38;39.38;;;;;;;4.24;60.94;102053.72;4894154;29;20146;-79
2023/01/29 03:11:34;;;;;;;77.25;39.15;;;;;;;4.29;61.19;102062.28;4893437;29;20056;-77
2023/01/29 03:15:26;;;;;;;81.05;39.17;;;;;;;4.18;60.89;102053.97;4878029;29;20047;-78
2023/01/29 03:17:30;;;;;;;80.90;37.85;;;;;;;4.03;61.35;102040.50;4888780;29;20297;-79
2023/01/29 03:20:12;;;;;;;85.33;38.97;;;;;;;4.03;61.19;102051.03;4882175;29;20114;-77
2023/01/29 03:22:50;;;;;;;77.78;38.25;;;;;;;3.83;62.05;102032.50;4898080;29;20417;-79
2023/01/29 03:34:08;;;;;;;91.07;39.33;;;;;;;3.83;62.38;102046.50;4899813;29;20667;-79
2023/01/29 03:37:08;;;;;;;73.40;37.42;;;;;;;3.88;61.79;102063.88;4887581;29;20373;-79
2023/01/29 03:39:35;;;;;;;81.60;39.70;;;;;;;3.77;61.51;102032.75;4878320;29;20051;-82
2023/01/29 03:42:17;;;;;;;81.80;38.78;;;;;;;3.99;62.20;102074.84;4888959;29;20139;-81
2023/01/29 03:44:59;;;;;;;78.03;38.63;;;;;;;3.91;62.20;102077.75;4884126;29;20055;-80
2023/01/29 03:47:59;;;;;;;84.18;40.13;;;;;;;3.89;62.50;102076.09;4909938;29;20051;-78
2023/01/29 03:50:55;;;;;;;84.28;38.47;;;;;;;3.91;62.39;102080.41;4871413;29;20274;-80
2023/01/29 03:53:22;;;;;;;90.13;38.42;;;;;;;3.18;61.76;101943.03;4883028;29;20142;-79
2023/01/29 03:55:58;;;;;;;88.00;39.97;;;;;;;3.96;61.92;102067.09;4884672;29;20047;-79
2023/01/29 03:58:56;;;;;;;93.13;40.78;;;;;;;3.00;61.74;101914.81;4877858;29;20550;-80
2023/01/29 04:01:37;;;;;;;87.77;40.10;;;;;;;3.90;62.22;102055.00;4868354;29;20071;-77
2023/01/29 04:04:18;;;;;;;85.43;40.88;;;;;;;3.90;61.73;102060.28;4888424;29;20139;-79
2023/01/29 04:06:51;;;;;;;79.70;38.85;;;;;;;3.78;62.12;102043.19;4904038;29;20047;-81
2023/01/29 04:09:30;;;;;;;82.78;39.60;;;;;;;3.93;61.91;102075.94;4873612;29;20383;-81
2023/01/29 04:12:09;;;;;;;84.97;40.03;;;;;;;3.18;62.01;101957.88;4882147;29;20052;-76
2023/01/29 04:14:40;;;;;;;87.60;39.97;;;;;;;3.31;62.57;102003.78;4878763;29;20078;-78
2023/01/29 04:17:18;;;;;;;87.65;42.05;;;;;;;3.68;62.44;102065.47;4899889;29;20059;-79
2023/01/29 04:20:10;;;;;;;77.78;38.20;;;;;;;3.73;62.80;102073.19;4882181;29;20052;-81
2023/01/29 04:22:45;;;;;;;93.30;40.80;;;;;;;2.11;62.77;101807.84;4881615;29;20201;-80
2023/01/29 04:25:25;;;;;;;86.82;39.80;;;;;;;3.72;63.06;102076.72;4898225;29;20318;-79
2023/01/29 04:28:20;;;;;;;82.03;38.97;;;;;;;3.57;62.64;102058.00;4899064;29;20063;-78
2023/01/29 04:30:57;;;;;;;80.28;39.28;;;;;;;3.17;62.50;101980.66;4886639;29;20572;-78
2023/01/29 04:34:02;;;;;;;82.50;39.50;;;;;;;3.74;62.27;102070.50;4880113;29;20395;-79
2023/01/29 04:36:49;;;;;;;88.33;40.47;;;;;;;3.39;63.01;102021.88;4897122;29;20136;-81
2023/01/29 04:39:50;;;;;;;89.05;39.13;;;;;;;3.63;62.85;102063.00;4847210;29;20521;-78
2023/01/29 04:42:37;;;;;;;81.83;38.13;;;;;;;3.69;62.80;102082.06;4848244;29;20123;-78
2023/01/29 04:45:17;;;;;;;88.03;38.93;;;;;;;3.60;63.06;102068.38;4841665;29;20048;-80
2023/01/29 04:48:19;;;;;;;80.95;37.92;;;;;;;3.69;63.25;102092.56;4871692;29;20651;-76
2023/01/29 04:51:06;;;;;;;80.45;37.90;;;;;;;3.26;62.68;102012.75;4860766;29;20103;-81
2023/01/29 04:54:19;;;;;;;77.10;38.33;;;;;;;3.78;62.44;102076.50;4853031;29;20063;-80
2023/01/29 04:57:05;;;;;;;86.43;37.85;;;;;;;3.76;62.13;102084.44;4877042;29;20047;-79
2023/01/29 04:59:47;;;;;;;89.72;40.00;;;;;;;3.64;62.76;102096.25;4861271;29;20415;-78
2023/01/29 05:02:26;;;;;;;83.97;40.28;;;;;;;3.51;62.75;102078.34;4858112;29;20091;-79
2023/01/29 05:04:54;;;;;;;77.87;38.37;;;;;;;3.14;63.17;102029.78;4867748;29;20107;-80
2023/01/29 05:07:23;;;;;;;80.40;38.63;;;;;;;3.34;63.34;102060.56;4876245;29;20505;-80
2023/01/29 05:09:54;;;;;;;83.22;39.25;;;;;;;3.58;63.63;102106.97;4875114;29;20056;-78
2023/01/29 05:12:28;;;;;;;77.40;38.10;;;;;;;3.36;63.02;102071.88;4885082;29;20059;-79
2023/01/29 05:15:01;;;;;;;84.03;39.60;;;;;;;3.52;63.12;102112.44;4884381;29;20051;-78
2023/01/29 05:17:28;;;;;;;78.82;39.38;;;;;;;3.40;63.36;102081.38;4885214;29;20047;-80
2023/01/29 05:19:58;;;;;;;87.80;40.13;;;;;;;3.41;63.31;102080.44;4886654;29;20075;-79
2023/01/29 05:22:48;;;;;;;79.00;39.22;;;;;;;3.52;63.41;102101.06;4871778;29;20147;-80
2023/01/29 05:25:28;;;;;;;83.67;39.23;;;;;;;3.43;64.44;102115.38;4860963;29;20527;-79
2023/01/29 05:28:15;;;;;;;79.87;40.60;;;;;;;3.44;63.54;102114.47;4863382;29;20048;-79
2023/01/29 05:30:47;;;;;;;85.05;41.58;;;;;;;3.32;63.99;102089.50;4878056;29;20384;-80
2023/01/29 05:33:24;;;;;;;91.70;42.15;;;;;;;3.32;64.17;102088.63;4880084;29;20055;-79
2023/01/29 05:35:51;;;;;;;83.18;40.47;;;;;;;3.35;63.74;102110.41;4883157;29;20568;-82
2023/01/29 05:38:27;;;;;;;85.67;39.93;;;;;;;3.20;64.30;102096.06;4859949;29;20898;-78
2023/01/29 05:40:58;;;;;;;82.03;39.73;;;;;;;3.07;63.71;102058.00;4898621;29;20281;-79
2023/01/29 05:43:38;;;;;;;82.17;38.87;;;;;;;3.22;63.85;102080.22;4878473;29;20056;-80
2023/01/29 05:46:06;;;;;;;80.40;38.13;;;;;;;3.31;63.97;102113.19;4879909;29;20048;-81
2023/01/29 05:48:34;;;;;;;92.07;41.33;;;;;;;3.17;63.88;102101.38;4857703;29;20596;-80
2023/01/29 05:51:08;;;;;;;82.10;38.63;;;;;;;3.03;64.41;102076.53;4868421;29;20498;-79
2023/01/29 05:53:34;;;;;;;74.67;37.83;;;;;;;3.36;64.23;102130.50;4879328;29;20052;-77
2023/01/29 05:56:03;;;;;;;85.53;38.95;;;;;;;3.47;64.03;102135.38;4864006;29;20051;-78
2023/01/29 05:58:37;;;;;;;80.28;39.97;;;;;;;3.35;63.62;102120.03;4862834;29;20039;-80
2023/01/29 06:01:24;;;;;;;87.28;39.60;;;;;;;3.26;63.81;102113.34;4870452;29;20275;-79
2023/01/29 06:03:51;;;;;;;86.90;38.53;;;;;;;3.41;63.57;102127.72;4868978;29;20064;-78
2023/01/29 06:06:18;;;;;;;88.00;40.05;;;;;;;3.32;63.78;102126.25;4869823;29;20047;-80
2023/01/29 06:08:45;;;;;;;83.27;39.70;;;;;;;3.32;63.35;102131.50;4892580;29;20518;-78
2023/01/29 06:11:13;;;;;;;78.43;39.13;;;;;;;3.14;63.76;102111.13;4872095;29;20111;-79
2023/01/29 06:13:40;;;;;;;72.90;36.80;;;;;;;3.29;64.03;102136.84;4913846;29;20130;-78
2023/01/29 06:16:08;;;;;;;80.90;39.25;;;;;;;3.18;63.83;102124.09;4897416;29;20513;-76
2023/01/29 06:18:44;;;;;;;80.30;36.30;;;;;;;3.13;64.31;102120.78;4890154;29;20095;-80
2023/01/29 06:21:14;;;;;;;81.47;37.17;;;;;;;3.26;64.51;102154.50;4894474;29;20055;-79
2023/01/29 06:23:46;;;;;;;84.05;36.75;;;;;;;2.80;64.62;102067.66;4887309;29;20056;-80
2023/01/29 06:26:14;;;;;;;77.47;39.37;;;;;;;3.22;64.43;102156.34;4867920;29;20056;-80
2023/01/29 06:28:41;;;;;;;87.47;37.58;;;;;;;3.03;64.67;102132.47;4880216;29;20087;-80
2023/01/29 06:31:09;;;;;;;85.70;37.30;;;;;;;3.16;63.99;102144.28;4892302;29;20055;-78
2023/01/29 06:33:56;;;;;;;83.30;38.67;;;;;;;3.22;63.95;102158.97;4876545;29;20798;-79
2023/01/29 06:36:28;;;;;;;86.65;38.38;;;;;;;3.07;64.28;102147.22;4888316;29;20131;-80
2023/01/29 06:38:58;;;;;;;84.23;38.40;;;;;;;3.00;64.85;102149.16;4892366;29;20052;-80
2023/01/29 06:41:48;;;;;;;82.20;37.20;;;;;;;2.80;64.67;102106.16;4858976;29;20052;-78
2023/01/29 06:44:16;;;;;;;84.23;37.60;;;;;;;3.06;64.34;102156.00;4862770;29;20669;-78
2023/01/29 06:46:43;;;;;;;84.67;41.27;;;;;;;3.17;64.32;102177.50;4880508;29;20064;-79
2023/01/29 06:49:31;;;;;;;89.00;40.83;;;;;;;3.13;64.46;102181.16;4872147;29;20123;-79
2023/01/29 06:52:11;;;;;;;86.13;38.50;;;;;;;3.27;64.01;102180.66;4861103;29;20529;-80
2023/01/29 06:54:41;;;;;;;84.50;41.70;;;;;;;3.13;64.25;102175.91;4870113;29;20443;-79
2023/01/29 06:57:10;;;;;;;86.13;39.10;;;;;;;3.20;64.26;102182.66;4840229;29;20072;-78
2023/01/29 06:59:37;;;;;;;85.03;39.27;;;;;;;2.39;64.01;102048.03;4857327;29;20066;-78
2023/01/29 07:02:15;;;;;;;80.97;37.90;;;;;;;3.25;64.64;102186.88;4870035;29;20558;-81
2023/01/29 07:04:43;;;;;;;88.80;39.30;;;;;;;3.12;64.69;102182.03;4873877;29;20063;-77
2023/01/29 07:07:15;;;;;;;85.67;41.33;;;;;;;3.04;64.84;102178.81;4890587;29;20055;-81
2023/01/29 07:09:43;;;;;;;82.20;37.42;;;;;;;3.16;64.42;102202.03;4885898;29;20510;-80
2023/01/29 07:12:10;;;;;;;78.53;38.00;;;;;;;2.90;64.96;102144.28;4890398;29;20058;-78
2023/01/29 07:14:37;;;;;;;76.67;38.30;;;;;;;2.91;64.58;102148.63;4896694;29;20581;-77
2023/01/29 07:17:03;;;;;;;86.97;39.93;;;;;;;3.27;64.14;102195.56;4901158;29;20437;-79
2023/01/29 07:19:30;;;;;;;82.93;38.23;;;;;;;3.29;64.08;102197.22;4887923;29;20149;-78
2023/01/29 07:22:02;;;;;;;79.30;39.27;;;;;;;3.31;64.24;102199.81;4888864;29;20115;-77
2023/01/29 07:24:32;;;;;;;75.63;37.63;;;;;;;3.19;63.87;102178.31;4880452;29;20078;-79
2023/01/29 07:27:03;;;;;;;77.30;38.10;;;;;;;3.15;63.86;102171.44;4869876;29;20048;-80
2023/01/29 07:29:32;;;;;;;78.30;39.03;;;;;;;3.36;64.24;102211.00;4871475;29;20082;-79
2023/01/29 07:32:05;;;;;;;81.37;39.20;;;;;;;3.39;64.08;102213.53;4861236;29;20067;-80
2023/01/29 07:34:32;;;;;;;82.90;41.08;;;;;;;2.67;63.60;102097.78;4887497;29;20103;-79
2023/01/29 07:37:05;;;;;;;96.80;41.35;;;;;;;3.09;63.15;102160.28;4879591;29;20055;-80
2023/01/29 07:39:37;;;;;;;85.60;40.05;;;;;;;3.31;63.77;102194.56;4880457;29;20063;-81
2023/01/29 07:42:18;;;;;;;85.82;38.13;;;;;;;3.53;63.34;102218.34;4902082;29;20549;-81
2023/01/29 07:44:53;;;;;;;79.60;39.27;;;;;;;3.54;63.09;102207.75;4896220;29;20483;-81
2023/01/29 07:47:33;;;;;;;81.43;41.00;;;;;;;3.24;63.02;102175.53;4885156;29;20132;-79
2023/01/29 07:50:04;;;;;;;89.45;39.95;;;;;;;3.62;63.10;102221.50;4876580;29;20310;-80
2023/01/29 07:52:32;;;;;;;76.13;36.20;;;;;;;3.39;63.29;102196.00;4886719;29;20296;-77
2023/01/29 07:55:00;;;;;;;77.78;36.63;;;;;;;3.65;62.94;102233.69;4865613;29;20224;-80
2023/01/29 07:57:35;;;;;;;80.80;39.20;;;;;;;3.41;63.40;102203.84;4871111;29;20063;-79
2023/01/29 08:00:09;;;;;;;90.13;41.23;;;;;;;3.53;63.28;102206.06;4861681;29;20428;-81
2023/01/29 08:02:36;;;;;;;95.10;39.35;;;;;;;3.42;62.64;102205.53;4890261;29;20392;-78
2023/01/29 08:05:05;;;;;;;80.13;40.40;;;;;;;3.32;63.05;102191.00;4867416;29;20055;-79
2023/01/29 08:07:34;;;;;;;80.83;39.80;;;;;;;3.54;62.66;102220.88;4884133;29;20055;-80
2023/01/29 08:10:12;;;;;;;88.10;41.03;;;;;;;3.70;63.04;102247.50;4868773;29;20048;-79
2023/01/29 08:12:42;;;;;;;87.22;40.22;;;;;;;3.68;62.70;102240.59;4903604;29;20055;-80
2023/01/29 08:15:19;;;;;;;90.53;40.03;;;;;;;3.75;62.86;102242.94;4903597;29;20053;-79
2023/01/29 08:17:46;;;;;;;86.37;39.23;;;;;;;3.77;62.81;102253.41;4871246;29;20410;-77
2023/01/29 08:20:39;;;;;;;94.07;42.83;;;;;;;3.72;62.82;102252.72;4858922;29;20477;-80
2023/01/29 08:23:11;;;;;;;87.83;39.40;;;;;;;3.91;62.52;102266.06;4875548;29;20448;-80
2023/01/29 08:25:38;;;;;;;87.80;39.38;;;;;;;3.69;62.95;102239.66;4862640;29;20048;-78
2023/01/29 08:28:31;;;;;;;83.65;41.22;;;;;;;4.06;62.31;102276.06;4850293;29;20059;-79
2023/01/29 08:31:01;;;;;;;88.77;41.57;;;;;;;4.01;61.94;102246.47;4829384;29;20259;-80
2023/01/29 08:33:35;;;;;;;96.40;40.23;;;;;;;3.85;61.67;102220.69;4853716;29;20472;-79
2023/01/29 08:36:30;;;;;;;96.70;41.20;;;;;;;4.06;61.42;102261.16;4864720;29;20431;-80
2023/01/29 08:39:04;;;;;;;84.10;39.33;;;;;;;3.67;61.70;102192.47;4849282;29;20244;-77
2023/01/29 08:41:33;;;;;;;89.25;40.08;;;;;;;4.22;61.55;102281.63;4868469;29;20406;-79
2023/01/29 08:44:08;;;;;;;79.80;40.17;;;;;;;4.12;62.06;102285.50;4879479;29;20062;-79
2023/01/29 08:46:35;;;;;;;94.95;40.72;;;;;;;4.08;62.05;102271.63;4884115;29;20347;-80
2023/01/29 08:49:10;;;;;;;82.17;39.23;;;;;;;3.95;62.26;102247.50;4877040;29;20509;-77
2023/01/29 08:51:37;;;;;;;85.07;41.78;;;;;;;4.34;61.61;102286.44;4884660;29;20342;-78
2023/01/29 08:54:07;;;;;;;89.33;41.70;;;;;;;4.42;61.92;102300.19;4889157;29;20052;-78
2023/01/29 08:56:42;;;;;;;96.60;43.13;;;;;;;4.27;61.42;102269.16;4868622;29;20463;-80
2023/01/29 08:59:17;;;;;;;88.93;43.00;;;;;;;4.25;61.21;102250.00;4861238;29;20073;-79
2023/01/29 09:01:46;;;;;;;89.72;40.53;;;;;;;4.32;61.26;102267.25;4879367;29;20107;-80
2023/01/29 09:04:22;;;;;;;82.15;40.85;;;;;;;4.19;60.49;102231.78;4865236;29;20673;-77
2023/01/29 09:06:53;;;;;;;90.60;41.13;;;;;;;4.73;60.54;102314.84;4869197;29;20063;-76
2023/01/29 09:09:21;;;;;;;86.55;40.80;;;;;;;4.64;59.87;102281.84;4864085;29;20051;-81
2023/01/29 09:11:55;;;;;;;100.30;43.42;;;;;;;4.73;60.05;102304.31;4885577;29;20315;-80
2023/01/29 09:14:29;;;;;;;92.97;43.50;;;;;;;4.50;60.47;102279.72;4881531;29;20395;-79
2023/01/29 09:19:42;;;;;;;90.63;45.00;;;;;;;4.36;60.80;102254.84;4896388;29;20315;-79
2023/01/29 09:22:09;;;;;;;92.68;44.83;;;;;;;4.64;60.61;102288.91;4879434;29;20603;-80
2023/01/29 09:24:43;;;;;;;86.18;43.47;;;;;;;4.71;61.28;102298.28;4873091;29;20538;-81
2023/01/29 09:27:10;;;;;;;102.35;47.13;;;;;;;4.83;60.83;102300.44;4857568;29;20044;-79
2023/01/29 09:29:43;;;;;;;100.68;46.53;;;;;;;4.74;60.77;102290.25;4872798;29;20063;-81
2023/01/29 09:32:16;;;;;;;;;;;;;;;4.89;60.41;102305.47;4864162;29;20147;-79
2023/01/29 09:35:06;;;;;;;103.18;47.25;;;;;;;4.93;60.65;102301.81;4879120;29;20119;-79
2023/01/29 09:37:32;;;;;;;106.70;49.13;;;;;;;4.98;60.58;102308.69;4882781;29;20052;-80
2023/01/29 09:40:19;;;;;;;110.95;54.00;;;;;;;4.94;60.19;102292.13;4883234;29;20499;-80
2023/01/29 09:42:53;;;;;;;115.57;51.80;;;;;;;5.26;59.94;102308.44;4879979;29;20208;-81
2023/01/29 09:45:24;;;;;;;102.63;48.53;;;;;;;5.35;59.24;102311.56;4881239;29;20051;-79
2023/01/29 09:47:52;;;;;;;95.50;47.28;;;;;;;5.37;59.26;102300.13;4884952;29;20799;-79
2023/01/29 09:50:32;;;;;;;99.20;47.83;;;;;;;5.56;59.02;102303.75;4884669;29;20257;-79
2023/01/29 09:53:24;;;;;;;92.75;48.35;;;;;;;5.60;59.55;102302.69;4878021;29;20482;-76
2023/01/29 09:56:04;;;;;;;101.65;47.50;;;;;;;5.42;59.29;102250.75;4859085;29;20850;-77
2023/01/29 09:58:44;;;;;;;101.05;47.25;;;;;;;5.53;58.67;102249.41;4869916;29;20254;-79
2023/01/29 10:01:39;;;;;;;100.90;47.33;;;;;;;6.04;57.67;102297.34;4867543;29;20210;-76
2023/01/29 10:05:01;;;;;;;99.90;46.78;;;;;;;6.15;57.58;102295.13;4863373;29;20067;-79
2023/01/29 10:08:15;;;;;;;82.65;43.85;;;;;;;6.33;56.94;102288.19;4801435;29;20052;-81
2023/01/29 10:11:29;;;;;;;91.03;44.03;;;;;;;6.43;56.99;102288.63;4860307;29;20688;-80
2023/01/29 10:14:36;;;;;;;100.43;47.58;;;;;;;5.83;56.67;102153.28;4818714;29;20053;-78
2023/01/29 10:17:18;;;;;;;103.07;49.42;;;;;;;6.64;56.42;102271.81;4818941;29;20431;-79
2023/01/29 10:20:10;;;;;;;97.70;47.97;;;;;;;6.56;57.04;102268.69;4807959;29;20788;-80
2023/01/29 10:22:55;;;;;;;113.90;49.40;;;;;;;6.45;56.83;102239.28;4815756;29;20131;-79
2023/01/29 10:25:23;;;;;;;103.05;50.83;;;;;;;6.60;56.69;102262.34;4822504;29;20380;-78
2023/01/29 10:27:56;;;;;;;104.65;50.60;;;;;;;6.48;57.10;102244.44;4821752;29;20279;-79
2023/01/29 10:30:32;;;;;;;101.78;48.03;;;;;;;6.22;57.03;102192.03;4856239;29;20060;-79
2023/01/29 10:33:03;;;;;;;103.72;49.17;;;;;;;6.56;57.36;102242.31;4880634;29;20454;-78
2023/01/29 10:35:55;;;;;;;99.97;49.53;;;;;;;6.46;56.94;102221.66;4865040;29;20048;-80
2023/01/29 10:38:32;;;;;;;102.93;48.72;;;;;;;6.86;56.64;102268.19;4873958;29;20043;-81
2023/01/29 10:41:21;;;;;;;98.55;47.42;;;;;;;6.14;56.42;102135.22;4864190;29;20051;-79
2023/01/29 10:44:16;;;;;;;91.47;46.50;;;;;;;6.83;56.89;102257.78;4866943;29;20103;-78
2023/01/29 10:47:01;;;;;;;104.97;50.97;;;;;;;6.89;56.81;102259.28;4874191;29;20067;-79
2023/01/29 10:50:06;;;;;;;103.43;51.55;;;;;;;6.94;56.91;102262.56;4875995;29;20055;-81
2023/01/29 10:52:55;;;;;;;99.07;49.75;;;;;;;6.56;57.33;102188.69;4892118;29;20155;-79
2023/01/29 10:56:07;;;;;;;99.28;50.47;;;;;;;7.11;57.25;102244.13;4861288;29;20138;-78
2023/01/29 10:59:31;;;;;;;92.95;48.75;;;;;;;7.30;56.40;102238.81;4867284;29;20326;-77
2023/01/29 11:02:11;;;;;;;95.95;49.55;;;;;;;7.53;56.34;102229.75;4828250;29;20116;-81
2023/01/29 11:04:46;;;;;;;96.15;49.50;;;;;;;7.56;54.71;102191.75;4827910;29;20052;-80
2023/01/29 11:07:18;;;;;;;85.60;45.30;;;;;;;7.52;54.52;102158.47;4866122;29;20295;-81
2023/01/29 11:09:59;;;;;;;91.47;45.35;;;;;;;8.00;54.42;102233.53;4865197;29;20166;-80
2023/01/29 11:12:49;;;;;;;89.65;45.70;;;;;;;8.11;54.57;102221.47;4873478;29;20366;-80
2023/01/29 11:15:26;;;;;;;87.47;45.60;;;;;;;8.28;54.14;102217.91;4847431;29;20288;-80
2023/01/29 11:18:14;;;;;;;91.05;45.47;;;;;;;8.39;53.47;102200.59;4884245;29;20137;-80
2023/01/29 11:20:43;;;;;;;84.57;44.28;;;;;;;7.83;53.72;102089.84;4860172;29;20448;-81
2023/01/29 11:23:31;;;;;;;81.18;43.22;;;;;;;7.69;52.54;102056.22;4889947;29;20503;-78
2023/01/29 11:26:04;;;;;;;82.45;42.25;;;;;;;8.34;52.79;102174.38;4876227;29;20048;-81
2023/01/29 11:28:43;;;;;;;87.93;43.85;;;;;;;8.45;53.75;102202.97;4867173;29;20770;-81
2023/01/29 11:31:22;;;;;;;86.75;44.50;;;;;;;8.03;53.82;102159.31;4879162;29;20494;-79
2023/01/29 11:34:26;;;;;;;87.88;44.95;;;;;;;7.60;54.79;102130.72;4867654;29;20055;-81
2023/01/29 11:37:01;;;;;;;84.15;45.45;;;;;;;7.66;55.52;102167.38;4868869;29;20055;-80
2023/01/29 11:39:31;;;;;;;82.88;41.75;;;;;;;7.70;55.82;102178.66;4869183;29;20094;-79
2023/01/29 11:42:07;;;;;;;93.22;44.60;;;;;;;7.75;55.17;102181.94;4872838;29;20049;-80
2023/01/29 11:44:39;;;;;;;81.93;42.28;;;;;;;7.43;55.86;102150.09;4884022;29;20056;-81
2023/01/29 11:47:26;;;;;;;;;;;;;;;7.56;56.26;102186.44;4885423;29;20499;-79
2023/01/29 11:50:19;;;;;;;81.25;40.05;;;;;;;7.45;56.84;102179.94;4882435;29;19962;-80
2023/01/29 11:52:46;;;;;;;73.47;38.85;;;;;;;7.24;57.23;102133.47;4889426;29;20068;-80
2023/01/29 11:55:32;;;;;;;71.20;39.88;;;;;;;7.38;57.43;102149.47;4880081;29;20749;-79
2023/01/29 11:58:26;;;;;;;81.15;40.17;;;;;;;7.43;57.60;102158.00;4879175;29;20420;-80
2023/01/29 12:01:00;;;;;;;76.68;40.97;;;;;;;7.33;57.71;102122.44;4877548;29;20283;-80
2023/01/29 12:03:38;;;;;;;76.50;40.30;;;;;;;7.60;56.74;102161.59;4865367;29;20402;-80
2023/01/29 12:06:43;;;;;;;69.97;38.10;;;;;;;7.47;57.36;102159.53;4846028;29;20269;-79
2023/01/29 12:09:18;;;;;;;79.25;40.83;;;;;;;7.35;57.91;102136.38;4859884;29;20201;-80
2023/01/29 12:11:45;;;;;;;75.95;40.38;;;;;;;7.43;57.70;102147.44;4883563;29;20051;-80
2023/01/29 12:14:40;;;;;;;72.68;38.10;;;;;;;6.88;58.10;102052.50;4864589;29;20493;-81
2023/01/29 12:17:38;;;;;;;70.38;38.30;;;;;;;7.52;57.38;102116.19;4870861;29;20048;-79
2023/01/29 12:20:51;;;;;;;73.78;40.08;;;;;;;7.63;57.26;102124.41;4858783;29;20135;-80
2023/01/29 12:24:13;;;;;;;74.57;40.33;;;;;;;7.48;57.95;102111.06;4804242;29;20530;-80
2023/01/29 12:27:07;;;;;;;57.70;32.10;;;;;;;7.49;56.77;102106.63;4829608;29;20052;-80
2023/01/29 12:29:53;;;;;;;62.67;31.00;;;;;;;7.46;56.53;102081.22;4886271;29;20052;-79
2023/01/29 12:32:48;;;;;;;63.85;34.63;;;;;;;7.50;56.96;102103.06;4903904;29;20153;-78
2023/01/29 12:35:34;;;;;;;58.75;31.90;;;;;;;7.47;56.73;102100.56;4889494;29;20052;-79
2023/01/29 12:38:19;;;;;;;59.47;30.73;;;;;;;7.48;56.28;102099.66;4872603;29;20438;-79
2023/01/29 12:40:54;;;;;;;60.80;32.13;;;;;;;7.40;56.57;102092.13;4877696;29;20071;-78
2023/01/29 12:43:46;;;;;;;58.88;31.65;;;;;;;7.20;57.27;102052.66;4854624;29;20528;-78